createdAt,value
2019-05-23T00:00:49.843Z,11.88
2019-05-23T00:01:49.818Z,11.94
2019-05-23T00:02:49.802Z,11.84
2019-05-23T00:03:49.774Z,11.88
2019-05-23T00:04:49.772Z,11.75
2019-05-23T00:05:49.718Z,11.81
2019-05-23T00:06:49.701Z,11.81
2019-05-23T00:07:49.669Z,11.75
2019-05-23T00:08:49.655Z,11.75
2019-05-23T00:09:49.647Z,11.84
2019-05-23T00:10:49.600Z,11.7
2019-05-23T00:11:49.581Z,11.75
2019-05-23T00:12:49.551Z,11.73
2019-05-23T00:13:49.533Z,11.69
2019-05-23T00:14:49.514Z,11.72
2019-05-23T00:15:49.490Z,11.65
2019-05-23T00:16:49.242Z,11.63
2019-05-23T00:17:49.434Z,11.63
2019-05-23T00:18:49.428Z,11.62
2019-05-23T00:19:49.395Z,11.66
2019-05-23T00:20:49.422Z,11.62
2019-05-23T00:21:49.338Z,11.62
2019-05-23T00:22:49.317Z,11.63
2019-05-23T00:23:49.292Z,11.62
2019-05-23T00:24:49.266Z,11.57
2019-05-23T00:25:49.244Z,11.57
2019-05-23T00:26:49.216Z,11.62
2019-05-23T00:27:49.188Z,11.55
2019-05-23T00:28:49.159Z,11.54
2019-05-23T00:29:49.221Z,11.63
2019-05-23T00:30:49.136Z,11.57
2019-05-23T00:31:49.108Z,11.55
2019-05-23T00:32:48.846Z,11.59
2019-05-23T00:33:49.045Z,11.44
2019-05-23T00:34:49.021Z,11.48
2019-05-23T00:35:49.003Z,11.43
2019-05-23T00:36:48.969Z,11.5
2019-05-23T00:37:48.950Z,11.37
2019-05-23T00:38:48.932Z,11.4
2019-05-23T00:39:48.902Z,11.47
2019-05-23T00:40:48.917Z,11.37
2019-05-23T00:41:48.857Z,11.32
2019-05-23T00:42:48.826Z,11.37
2019-05-23T00:43:48.815Z,11.33
2019-05-23T00:44:48.840Z,11.33
2019-05-23T00:45:48.750Z,11.3
2019-05-23T00:46:48.730Z,11.32
2019-05-23T00:47:48.736Z,11.35
2019-05-23T00:48:48.704Z,11.36
2019-05-23T00:49:48.680Z,11.3
2019-05-23T00:50:48.680Z,11.35
2019-05-23T00:51:48.608Z,11.36
2019-05-23T00:52:48.583Z,11.33
2019-05-23T00:53:48.562Z,11.3
2019-05-23T00:54:48.554Z,11.32
2019-05-23T00:55:48.620Z,11.33
2019-05-23T00:56:48.484Z,11.26
2019-05-23T00:57:48.474Z,11.29
2019-05-23T00:58:48.540Z,11.36
2019-05-23T00:59:48.413Z,11.27
2019-05-23T01:00:48.389Z,11.23
2019-05-23T01:01:48.368Z,11.27
2019-05-23T01:02:48.348Z,11.32
2019-05-23T01:03:48.329Z,11.26
2019-05-23T01:04:48.293Z,11.19
2019-05-23T01:05:48.264Z,11.14
2019-05-23T01:06:48.235Z,11.14
2019-05-23T01:07:48.212Z,11.17
2019-05-23T01:08:48.209Z,11.1
2019-05-23T01:09:48.184Z,11.12
2019-05-23T01:10:48.142Z,11.1
2019-05-23T01:11:48.117Z,11.08
2019-05-23T01:12:48.109Z,11.08
2019-05-23T01:13:48.063Z,10.96
2019-05-23T01:14:48.058Z,10.94
2019-05-23T01:15:48.016Z,10.96
2019-05-23T01:16:47.986Z,10.96
2019-05-23T01:17:47.967Z,10.94
2019-05-23T01:18:47.948Z,11
2019-05-23T01:19:47.920Z,10.89
2019-05-23T01:20:47.941Z,10.9
2019-05-23T01:21:47.933Z,10.92
2019-05-23T01:22:47.838Z,10.87
2019-05-23T01:23:47.845Z,10.92
2019-05-23T01:24:47.833Z,10.94
2019-05-23T01:25:47.771Z,10.84
2019-05-23T01:26:47.744Z,10.82
2019-05-23T01:27:47.727Z,10.82
2019-05-23T01:28:47.786Z,10.78
2019-05-23T01:29:52.104Z,10.78
2019-05-23T01:30:47.649Z,10.75
2019-05-23T01:31:47.624Z,10.72
2019-05-23T01:32:47.598Z,10.75
2019-05-23T01:33:47.634Z,10.72
2019-05-23T01:34:47.565Z,10.61
2019-05-23T01:35:47.517Z,10.68
2019-05-23T01:36:47.511Z,10.6
2019-05-23T01:37:47.488Z,10.63
2019-05-23T01:38:47.452Z,10.71
2019-05-23T01:39:47.430Z,10.61
2019-05-23T01:40:47.155Z,10.53
2019-05-23T01:41:47.369Z,10.54
2019-05-23T01:42:47.341Z,10.59
2019-05-23T01:43:47.341Z,10.56
2019-05-23T01:44:47.403Z,10.61
2019-05-23T01:45:47.267Z,10.6
2019-05-23T01:46:47.250Z,10.57
2019-05-23T01:47:47.221Z,10.57
2019-05-23T01:48:47.210Z,10.53
2019-05-23T01:49:47.181Z,10.54
2019-05-23T01:50:47.151Z,10.53
2019-05-23T01:51:47.136Z,10.49
2019-05-23T01:52:47.207Z,10.42
2019-05-23T01:53:47.106Z,10.37
2019-05-23T01:54:47.052Z,10.53
2019-05-23T01:55:47.055Z,10.37
2019-05-23T01:56:47.066Z,10.33
2019-05-23T01:57:46.971Z,10.41
2019-05-23T01:58:46.949Z,10.35
2019-05-23T01:59:46.936Z,10.31
2019-05-23T02:00:46.899Z,10.33
2019-05-23T02:01:46.895Z,10.35
2019-05-23T02:02:46.858Z,10.28
2019-05-23T02:03:46.825Z,10.34
2019-05-23T02:04:46.798Z,10.22
2019-05-23T02:05:46.770Z,10.31
2019-05-23T02:06:46.752Z,10.33
2019-05-23T02:07:46.727Z,10.3
2019-05-23T02:08:46.478Z,10.33
2019-05-23T02:09:46.670Z,10.25
2019-05-23T02:10:46.670Z,10.23
2019-05-23T02:11:46.624Z,10.2
2019-05-23T02:12:46.624Z,10.3
2019-05-23T02:13:46.574Z,10.2
2019-05-23T02:14:46.564Z,10.16
2019-05-23T02:15:46.525Z,10.16
2019-05-23T02:16:46.499Z,10.22
2019-05-23T02:17:46.488Z,10.17
2019-05-23T02:18:46.448Z,10.15
2019-05-23T02:19:46.456Z,10.22
2019-05-23T02:20:46.392Z,10.22
2019-05-23T02:21:46.367Z,10.17
2019-05-23T02:22:46.349Z,10.15
2019-05-23T02:23:46.144Z,10.13
2019-05-23T02:24:46.418Z,10.15
2019-05-23T02:25:46.557Z,10.09
2019-05-23T02:26:46.244Z,10.04
2019-05-23T02:27:46.223Z,9.99
2019-05-23T02:28:46.195Z,9.95
2019-05-23T02:29:46.174Z,9.98
2019-05-23T02:30:46.152Z,9.92
2019-05-23T02:31:46.183Z,9.99
2019-05-23T02:32:46.100Z,10.01
2019-05-23T02:33:46.077Z,10.02
2019-05-23T02:34:46.046Z,10.05
2019-05-23T02:35:46.034Z,10.04
2019-05-23T02:36:45.993Z,9.91
2019-05-23T02:37:45.962Z,9.89
2019-05-23T02:38:45.943Z,9.94
2019-05-23T02:39:45.961Z,9.98
2019-05-23T02:40:45.909Z,10.01
2019-05-23T02:41:45.898Z,9.94
2019-05-23T02:42:45.937Z,9.89
2019-05-23T02:43:45.809Z,9.86
2019-05-23T02:44:45.791Z,9.79
2019-05-23T02:45:45.764Z,9.82
2019-05-23T02:46:45.745Z,9.76
2019-05-23T02:47:46.936Z,9.76
2019-05-23T02:48:45.692Z,9.65
2019-05-23T02:49:45.656Z,9.66
2019-05-23T02:50:45.640Z,9.66
2019-05-23T02:51:45.641Z,9.65
2019-05-23T02:52:45.594Z,9.58
2019-05-23T02:53:45.561Z,9.62
2019-05-23T02:54:45.777Z,9.64
2019-05-23T02:55:45.522Z,9.58
2019-05-23T02:56:45.485Z,9.61
2019-05-23T02:57:45.452Z,9.54
2019-05-23T02:58:45.435Z,9.55
2019-05-23T02:59:45.418Z,9.51
2019-05-23T03:00:58.726Z,9.44
2019-05-23T03:01:45.356Z,9.48
2019-05-23T03:02:45.358Z,9.48
2019-05-23T03:03:45.319Z,9.5
2019-05-23T03:04:45.282Z,9.51
2019-05-23T03:05:45.257Z,9.5
2019-05-23T03:06:45.225Z,9.5
2019-05-23T03:07:45.350Z,9.46
2019-05-23T03:08:45.169Z,9.47
2019-05-23T03:09:45.196Z,9.5
2019-05-23T03:10:45.135Z,9.43
2019-05-23T03:11:44.625Z,9.4
2019-05-23T03:12:45.084Z,9.47
2019-05-23T03:13:45.049Z,9.46
2019-05-23T03:14:45.020Z,9.54
2019-05-23T03:15:44.994Z,9.46
2019-05-23T03:16:44.966Z,9.46
2019-05-23T03:17:44.944Z,9.5
2019-05-23T03:18:44.917Z,9.47
2019-05-23T03:19:44.928Z,9.47
2019-05-23T03:20:44.861Z,9.47
2019-05-23T03:21:44.611Z,9.46
2019-05-23T03:22:44.944Z,9.39
2019-05-23T03:23:44.786Z,9.4
2019-05-23T03:24:44.762Z,9.36
2019-05-23T03:25:44.757Z,9.39
2019-05-23T03:26:44.713Z,9.43
2019-05-23T03:27:44.718Z,9.29
2019-05-23T03:28:44.650Z,9.28
2019-05-23T03:29:44.639Z,9.36
2019-05-23T03:30:44.680Z,9.36
2019-05-23T03:31:44.592Z,9.37
2019-05-23T03:32:44.801Z,9.31
2019-05-23T03:33:44.548Z,9.37
2019-05-23T03:34:44.524Z,9.32
2019-05-23T03:35:44.600Z,9.36
2019-05-23T03:36:44.447Z,9.32
2019-05-23T03:37:44.442Z,9.31
2019-05-23T03:38:44.398Z,9.37
2019-05-23T03:39:44.393Z,9.39
2019-05-23T03:40:44.348Z,9.31
2019-05-23T03:41:44.321Z,9.36
2019-05-23T03:42:44.329Z,9.34
2019-05-23T03:43:45.471Z,9.37
2019-05-23T03:44:44.242Z,9.41
2019-05-23T03:45:44.671Z,9.36
2019-05-23T03:46:44.210Z,9.41
2019-05-23T03:47:44.185Z,9.39
2019-05-23T03:48:44.176Z,9.41
2019-05-23T03:49:44.125Z,9.37
2019-05-23T03:50:44.117Z,9.32
2019-05-23T03:51:44.061Z,9.43
2019-05-23T03:52:44.047Z,9.39
2019-05-23T03:53:44.013Z,9.46
2019-05-23T03:54:43.749Z,9.51
2019-05-23T03:55:44.248Z,9.5
2019-05-23T03:56:43.954Z,9.5
2019-05-23T03:57:43.906Z,9.54
2019-05-23T03:58:43.887Z,9.62
2019-05-23T03:59:43.848Z,9.58
2019-05-23T04:00:43.852Z,9.58
2019-05-23T04:01:52.978Z,9.69
2019-05-23T04:02:43.810Z,9.68
2019-05-23T04:03:45.131Z,9.64
2019-05-23T04:04:43.732Z,9.65
2019-05-23T04:05:43.713Z,9.73
2019-05-23T04:06:43.690Z,9.82
2019-05-23T04:07:43.658Z,9.73
2019-05-23T04:08:43.637Z,9.77
2019-05-23T04:09:43.612Z,9.89
2019-05-23T04:10:43.598Z,9.94
2019-05-23T04:11:43.562Z,9.94
2019-05-23T04:12:43.558Z,9.97
2019-05-23T04:13:43.509Z,9.98
2019-05-23T04:14:43.492Z,9.94
2019-05-23T04:15:43.453Z,10.02
2019-05-23T04:16:43.425Z,10.05
2019-05-23T04:17:43.398Z,10.01
2019-05-23T04:18:43.404Z,10.07
2019-05-23T04:19:43.356Z,10.1
2019-05-23T04:20:43.326Z,10.19
2019-05-23T04:21:43.383Z,10.19
2019-05-23T04:22:43.276Z,10.15
2019-05-23T04:23:43.270Z,10.25
2019-05-23T04:24:43.223Z,10.34
2019-05-23T04:25:43.203Z,10.31
2019-05-23T04:26:43.165Z,10.34
2019-05-23T04:27:43.151Z,10.35
2019-05-23T04:28:43.122Z,10.4
2019-05-23T04:29:43.169Z,10.54
2019-05-23T04:30:43.142Z,10.51
2019-05-23T04:31:43.043Z,10.53
2019-05-23T04:32:43.103Z,10.67
2019-05-23T04:33:43.014Z,10.6
2019-05-23T04:34:42.971Z,10.64
2019-05-23T04:35:43.735Z,10.71
2019-05-23T04:36:42.918Z,10.78
2019-05-23T04:37:42.945Z,10.81
2019-05-23T04:38:42.882Z,10.87
2019-05-23T04:39:42.857Z,10.81
2019-05-23T04:40:42.845Z,10.79
2019-05-23T04:41:42.882Z,10.92
2019-05-23T04:42:42.802Z,10.99
2019-05-23T04:43:42.762Z,10.92
2019-05-23T04:44:46.815Z,11.07
2019-05-23T04:45:42.712Z,11.17
2019-05-23T04:46:42.677Z,11.11
2019-05-23T04:47:42.653Z,11.18
2019-05-23T04:48:42.634Z,11.22
2019-05-23T04:49:42.632Z,11.18
2019-05-23T04:50:42.601Z,11.12
2019-05-23T04:51:42.554Z,11.19
2019-05-23T04:52:42.537Z,11.26
2019-05-23T04:53:42.513Z,11.36
2019-05-23T04:54:42.482Z,11.36
2019-05-23T04:55:42.457Z,11.33
2019-05-23T04:56:42.443Z,11.4
2019-05-23T04:57:42.457Z,11.45
2019-05-23T04:58:42.391Z,11.48
2019-05-23T04:59:42.379Z,11.44
2019-05-23T05:00:42.352Z,11.54
2019-05-23T05:01:42.324Z,11.54
2019-05-23T05:02:42.308Z,11.51
2019-05-23T05:03:42.273Z,11.66
2019-05-23T05:04:42.016Z,11.68
2019-05-23T05:05:42.248Z,11.75
2019-05-23T05:06:42.236Z,11.86
2019-05-23T05:07:42.234Z,11.87
2019-05-23T05:08:42.166Z,11.94
2019-05-23T05:09:42.145Z,11.86
2019-05-23T05:10:42.106Z,11.91
2019-05-23T05:11:42.100Z,11.97
2019-05-23T05:12:42.075Z,11.97
2019-05-23T05:13:42.040Z,12.1
2019-05-23T05:14:42.013Z,12.06
2019-05-23T05:15:41.994Z,12.2
2019-05-23T05:16:41.965Z,12.15
2019-05-23T05:17:41.947Z,12.1
2019-05-23T05:18:41.927Z,12.24
2019-05-23T05:19:41.936Z,12.2
2019-05-23T05:20:41.909Z,12.29
2019-05-23T05:21:41.845Z,12.25
2019-05-23T05:22:41.833Z,12.39
2019-05-23T05:23:41.807Z,12.42
2019-05-23T05:24:44.965Z,12.54
2019-05-23T05:25:41.756Z,12.49
2019-05-23T05:26:41.529Z,12.58
2019-05-23T05:27:41.713Z,12.8
2019-05-23T05:28:41.698Z,12.79
2019-05-23T05:29:41.670Z,12.9
2019-05-23T05:30:41.642Z,13.01
2019-05-23T05:31:41.648Z,13.03
2019-05-23T05:32:50.625Z,13.09
2019-05-23T05:33:41.660Z,13.15
2019-05-23T05:34:41.606Z,13.16
2019-05-23T05:35:41.533Z,13.2
2019-05-23T05:36:41.527Z,13.37
2019-05-23T05:37:41.503Z,13.5
2019-05-23T05:38:41.486Z,13.52
2019-05-23T05:39:41.349Z,13.6
2019-05-23T05:40:41.427Z,13.74
2019-05-23T05:41:41.420Z,13.75
2019-05-23T05:42:41.382Z,13.74
2019-05-23T05:43:41.372Z,13.86
2019-05-23T05:44:41.407Z,13.99
2019-05-23T05:45:41.312Z,13.9
2019-05-23T05:46:41.306Z,14.03
2019-05-23T05:47:41.346Z,14.04
2019-05-23T05:48:41.324Z,14.15
2019-05-23T05:49:44.676Z,14.15
2019-05-23T05:50:41.264Z,14.15
2019-05-23T05:51:41.200Z,14.36
2019-05-23T05:52:41.193Z,14.32
2019-05-23T05:53:41.184Z,14.35
2019-05-23T05:54:41.122Z,14.35
2019-05-23T05:55:41.106Z,14.43
2019-05-23T05:56:41.091Z,14.33
2019-05-23T05:57:41.068Z,14.5
2019-05-23T05:58:41.053Z,14.44
2019-05-23T05:59:41.026Z,14.66
2019-05-23T06:00:41.204Z,14.77
2019-05-23T06:01:40.982Z,14.91
2019-05-23T06:02:40.962Z,14.96
2019-05-23T06:03:40.962Z,15.09
2019-05-23T06:04:40.939Z,15.17
2019-05-23T06:05:40.906Z,15.35
2019-05-23T06:06:40.883Z,15.4
2019-05-23T06:07:40.864Z,15.58
2019-05-23T06:08:40.848Z,15.64
2019-05-23T06:09:41.177Z,15.79
2019-05-23T06:10:40.591Z,15.77
2019-05-23T06:11:40.791Z,15.76
2019-05-23T06:12:40.782Z,15.94
2019-05-23T06:13:40.738Z,16
2019-05-23T06:14:40.490Z,16.09
2019-05-23T06:15:40.719Z,16.2
2019-05-23T06:16:40.733Z,16.21
2019-05-23T06:17:40.439Z,16.41
2019-05-23T06:18:40.656Z,16.5
2019-05-23T06:19:40.637Z,16.61
2019-05-23T06:20:43.259Z,16.71
2019-05-23T06:21:40.628Z,16.74
2019-05-23T06:22:41.948Z,16.84
2019-05-23T06:23:41.472Z,16.91
2019-05-23T06:24:58.176Z,16.91
2019-05-23T06:25:40.701Z,16.87
2019-05-23T06:26:40.900Z,16.94
2019-05-23T06:27:40.538Z,16.99
2019-05-23T06:28:40.484Z,17.02
2019-05-23T06:29:40.484Z,17.05
2019-05-23T06:30:41.643Z,17.22
2019-05-23T06:31:40.441Z,17.29
2019-05-23T06:32:40.422Z,17.39
2019-05-23T06:33:40.391Z,17.46
2019-05-23T06:34:40.728Z,17.48
2019-05-23T06:35:40.353Z,17.49
2019-05-23T06:36:40.406Z,17.54
2019-05-23T06:37:40.745Z,17.65
2019-05-23T06:38:40.677Z,17.71
2019-05-23T06:39:40.309Z,17.68
2019-05-23T06:40:40.287Z,17.64
2019-05-23T06:41:40.266Z,17.57
2019-05-23T06:42:40.309Z,17.51
2019-05-23T06:43:40.236Z,17.44
2019-05-23T06:44:40.284Z,17.42
2019-05-23T06:45:40.259Z,17.41
2019-05-23T06:46:40.364Z,17.34
2019-05-23T06:47:40.181Z,17.26
2019-05-23T06:48:45.302Z,17.19
2019-05-23T06:49:40.155Z,17.08
2019-05-23T06:50:40.146Z,17.08
2019-05-23T06:51:40.281Z,17.04
2019-05-23T06:52:40.118Z,16.97
2019-05-23T06:53:40.222Z,16.93
2019-05-23T06:54:40.088Z,17.02
2019-05-23T06:55:40.102Z,16.97
2019-05-23T06:56:40.085Z,16.94
2019-05-23T06:57:39.799Z,16.84
2019-05-23T06:58:40.812Z,16.94
2019-05-23T06:59:40.018Z,16.89
2019-05-23T07:00:40.024Z,17.02
2019-05-23T07:01:39.993Z,16.94
2019-05-23T07:02:39.983Z,16.96
2019-05-23T07:03:47.377Z,16.96
2019-05-23T07:04:39.969Z,16.93
2019-05-23T07:05:39.941Z,17.06
2019-05-23T07:06:39.921Z,16.99
2019-05-23T07:07:40.420Z,17.08
2019-05-23T07:08:39.909Z,17.19
2019-05-23T07:09:40.323Z,17.26
2019-05-23T07:10:40.951Z,17.38
2019-05-23T07:11:39.872Z,17.33
2019-05-23T07:12:40.137Z,17.34
2019-05-23T07:13:39.832Z,17.36
2019-05-23T07:14:39.817Z,17.48
2019-05-23T07:15:39.825Z,17.46
2019-05-23T07:16:39.959Z,17.52
2019-05-23T07:17:39.773Z,17.52
2019-05-23T07:18:39.763Z,17.59
2019-05-23T07:19:39.752Z,17.59
2019-05-23T07:20:39.757Z,17.63
2019-05-23T07:21:39.725Z,17.76
2019-05-23T07:22:39.716Z,17.68
2019-05-23T07:23:41.081Z,17.78
2019-05-23T07:24:55.148Z,17.79
2019-05-23T07:25:39.683Z,17.97
2019-05-23T07:26:39.673Z,17.97
2019-05-23T07:27:39.707Z,17.94
2019-05-23T07:28:39.638Z,18.04
2019-05-23T07:29:39.650Z,18.15
2019-05-23T07:30:39.847Z,18.22
2019-05-23T07:31:41.306Z,18.18
2019-05-23T07:32:40.080Z,18.19
2019-05-23T07:33:58.116Z,18.18
2019-05-23T07:34:39.554Z,18.28
2019-05-23T07:35:40.400Z,18.34
2019-05-23T07:36:40.126Z,18.44
2019-05-23T07:37:39.309Z,18.55
2019-05-23T07:38:39.539Z,18.49
2019-05-23T07:39:39.516Z,18.45
2019-05-23T07:40:39.507Z,18.59
2019-05-23T07:41:39.492Z,18.55
2019-05-23T07:42:39.488Z,18.73
2019-05-23T07:43:39.473Z,18.68
2019-05-23T07:44:52.500Z,18.84
2019-05-23T07:45:42.228Z,18.89
2019-05-23T07:46:39.248Z,19
2019-05-23T07:47:42.557Z,19.11
2019-05-23T07:48:39.178Z,19.14
2019-05-23T07:49:39.677Z,19.22
2019-05-23T07:50:39.587Z,19.14
2019-05-23T07:51:41.005Z,19.16
2019-05-23T07:52:40.478Z,19.09
2019-05-23T07:53:43.642Z,19.04
2019-05-23T07:54:40.078Z,19.16
2019-05-23T07:55:40.704Z,19.19
2019-05-23T07:56:40.343Z,19.31
2019-05-23T07:57:39.452Z,19.31
2019-05-23T07:58:41.837Z,19.55
2019-05-23T07:59:39.494Z,19.69
2019-05-23T08:00:39.947Z,19.82
2019-05-23T08:01:39.322Z,19.95
2019-05-23T08:02:39.366Z,20
2019-05-23T08:03:39.318Z,19.94
2019-05-23T08:04:39.279Z,19.89
2019-05-23T08:05:39.266Z,19.86
2019-05-23T08:06:39.012Z,19.86
2019-05-23T08:07:39.227Z,19.94
2019-05-23T08:08:39.230Z,20.07
2019-05-23T08:09:39.293Z,20.07
2019-05-23T08:10:39.567Z,20.16
2019-05-23T08:11:39.192Z,20.31
2019-05-23T08:12:39.230Z,20.36
2019-05-23T08:13:39.185Z,20.32
2019-05-23T08:14:39.164Z,20.29
2019-05-23T08:15:39.165Z,20.32
2019-05-23T08:16:39.013Z,20.56
2019-05-23T08:17:39.143Z,20.8
2019-05-23T08:18:39.151Z,20.9
2019-05-23T08:19:53.867Z,21.06
2019-05-23T08:20:39.113Z,21.29
2019-05-23T08:21:39.107Z,21.55
2019-05-23T08:22:39.115Z,21.7
2019-05-23T08:23:39.130Z,21.92
2019-05-23T08:24:39.215Z,22.14
2019-05-23T08:25:39.373Z,22.33
2019-05-23T08:26:39.263Z,22.26
2019-05-23T08:27:39.189Z,22.17
2019-05-23T08:28:56.571Z,22.11
2019-05-23T08:29:39.955Z,22.18
2019-05-23T08:30:39.663Z,22.35
2019-05-23T08:31:39.889Z,22.57
2019-05-23T08:32:39.947Z,22.73
2019-05-23T08:33:39.545Z,22.83
2019-05-23T08:34:46.863Z,22.93
2019-05-23T08:35:38.985Z,23.08
2019-05-23T08:36:38.979Z,23.13
2019-05-23T08:37:38.985Z,23.24
2019-05-23T08:38:38.977Z,23.41
2019-05-23T08:39:39.131Z,23.56
2019-05-23T08:40:39.760Z,23.61
2019-05-23T08:41:38.962Z,23.61
2019-05-23T08:42:38.956Z,23.62
2019-05-23T08:43:38.947Z,23.8
2019-05-23T08:44:38.934Z,23.78
2019-05-23T08:45:39.040Z,23.71
2019-05-23T08:46:38.914Z,23.61
2019-05-23T08:47:38.902Z,23.58
2019-05-23T08:48:38.899Z,23.58
2019-05-23T08:49:39.053Z,23.62
2019-05-23T08:50:39.325Z,23.66
2019-05-23T08:51:39.024Z,23.92
2019-05-23T08:52:38.914Z,24.24
2019-05-23T08:53:39.048Z,24.53
2019-05-23T08:54:38.849Z,24.77
2019-05-23T08:55:38.837Z,24.86
2019-05-23T08:56:38.840Z,24.69
2019-05-23T08:57:38.871Z,24.73
2019-05-23T08:58:38.823Z,24.74
2019-05-23T08:59:38.581Z,24.98
2019-05-23T09:00:38.827Z,24.98
2019-05-23T09:01:38.791Z,25.07
2019-05-23T09:02:38.796Z,25.32
2019-05-23T09:03:38.800Z,25.35
2019-05-23T09:04:38.781Z,25.31
2019-05-23T09:05:38.780Z,25.46
2019-05-23T09:06:38.772Z,25.47
2019-05-23T09:07:38.760Z,25.6
2019-05-23T09:08:38.785Z,25.7
2019-05-23T09:09:38.730Z,25.98
2019-05-23T09:10:38.773Z,26.21
2019-05-23T09:11:38.753Z,26.28
2019-05-23T09:12:38.732Z,26.48
2019-05-23T09:13:38.532Z,26.89
2019-05-23T09:14:38.706Z,27.1
2019-05-23T09:15:38.781Z,27.21
2019-05-23T09:16:38.710Z,27.35
2019-05-23T09:17:57.114Z,27.67
2019-05-23T09:18:38.522Z,27.82
2019-05-23T09:19:38.696Z,28.02
2019-05-23T09:20:38.668Z,28.39
2019-05-23T09:21:38.718Z,28.32
2019-05-23T09:22:38.660Z,28.19
2019-05-23T09:23:39.579Z,28.17
2019-05-23T09:24:39.627Z,28.25
2019-05-23T09:25:40.134Z,28.39
2019-05-23T09:26:39.442Z,28.26
2019-05-23T09:27:40.300Z,28.17
2019-05-23T09:28:40.416Z,28.01
2019-05-23T09:29:38.819Z,27.71
2019-05-23T09:30:40.805Z,27.59
2019-05-23T09:31:38.905Z,27.55
2019-05-23T09:32:38.991Z,27.63
2019-05-23T09:33:39.254Z,27.65
2019-05-23T09:34:38.974Z,27.86
2019-05-23T09:35:40.106Z,27.82
2019-05-23T09:36:38.588Z,27.77
2019-05-23T09:37:38.576Z,27.77
2019-05-23T09:38:38.634Z,27.59
2019-05-23T09:39:38.585Z,27.45
2019-05-23T09:40:38.585Z,27.73
2019-05-23T09:41:38.570Z,27.87
2019-05-23T09:42:38.566Z,27.98
2019-05-23T09:43:38.546Z,28.11
2019-05-23T09:44:38.579Z,28.1
2019-05-23T09:45:38.533Z,27.85
2019-05-23T09:46:38.528Z,27.64
2019-05-23T09:47:38.555Z,27.42
2019-05-23T09:48:38.293Z,27.44
2019-05-23T09:49:38.628Z,27.55
2019-05-23T09:50:38.514Z,27.65
2019-05-23T09:51:38.909Z,27.77
2019-05-23T09:52:38.492Z,27.83
2019-05-23T09:53:38.266Z,27.85
2019-05-23T09:54:38.484Z,27.95
2019-05-23T09:55:38.489Z,28.11
2019-05-23T09:56:38.469Z,28.19
2019-05-23T09:57:38.470Z,28.25
2019-05-23T09:58:38.465Z,28.41
2019-05-23T09:59:38.470Z,28.59
2019-05-23T10:00:38.451Z,28.67
2019-05-23T10:01:38.764Z,28.63
2019-05-23T10:02:38.444Z,28.56
2019-05-23T10:03:38.455Z,28.44
2019-05-23T10:04:38.662Z,28.22
2019-05-23T10:05:47.837Z,28.3
2019-05-23T10:06:38.431Z,28.14
2019-05-23T10:07:38.463Z,28.19
2019-05-23T10:08:38.441Z,28.39
2019-05-23T10:09:38.421Z,28.29
2019-05-23T10:10:38.403Z,28.35
2019-05-23T10:11:38.403Z,28.37
2019-05-23T10:12:38.402Z,28.26
2019-05-23T10:13:44.022Z,28.17
2019-05-23T10:14:38.382Z,27.95
2019-05-23T10:15:38.435Z,27.89
2019-05-23T10:16:38.374Z,27.86
2019-05-23T10:17:38.260Z,27.82
2019-05-23T10:18:38.363Z,27.8
2019-05-23T10:19:38.383Z,27.7
2019-05-23T10:20:38.485Z,27.47
2019-05-23T10:21:38.365Z,27.1
2019-05-23T10:22:38.491Z,27.14
2019-05-23T10:23:38.365Z,26.84
2019-05-23T10:24:38.391Z,26.31
2019-05-23T10:25:38.361Z,25.66
2019-05-23T10:26:38.315Z,25.26
2019-05-23T10:27:38.354Z,25.1
2019-05-23T10:28:38.331Z,25.07
2019-05-23T10:29:38.350Z,24.86
2019-05-23T10:30:38.350Z,24.89
2019-05-23T10:31:38.299Z,24.91
2019-05-23T10:32:38.277Z,24.65
2019-05-23T10:33:38.259Z,24.36
2019-05-23T10:34:38.265Z,24.77
2019-05-23T10:35:38.248Z,25.17
2019-05-23T10:36:38.250Z,25.7
2019-05-23T10:37:38.238Z,26.33
2019-05-23T10:38:38.231Z,26.88
2019-05-23T10:39:38.230Z,27
2019-05-23T10:40:38.224Z,27
2019-05-23T10:41:38.206Z,26.68
2019-05-23T10:42:38.271Z,26.51
2019-05-23T10:43:38.202Z,26.77
2019-05-23T10:44:38.197Z,26.85
2019-05-23T10:45:38.178Z,26.97
2019-05-23T10:46:38.237Z,27.21
2019-05-23T10:47:38.187Z,27.52
2019-05-23T10:48:38.169Z,27.92
2019-05-23T10:49:38.769Z,28.27
2019-05-23T10:50:49.980Z,28.64
2019-05-23T10:51:38.155Z,28.88
2019-05-23T10:52:37.914Z,28.94
2019-05-23T10:53:38.376Z,28.89
2019-05-23T10:54:38.138Z,28.79
2019-05-23T10:55:38.138Z,28.54
2019-05-23T10:56:38.309Z,28.19
2019-05-23T10:57:39.117Z,27.8
2019-05-23T10:58:39.041Z,27.27
2019-05-23T10:59:40.013Z,27.17
2019-05-23T11:00:39.251Z,27.11
2019-05-23T11:01:39.914Z,27.25
2019-05-23T11:02:39.035Z,27.54
2019-05-23T11:03:39.075Z,27.95
2019-05-23T11:04:38.171Z,28.37
2019-05-23T11:05:39.226Z,28.51
2019-05-23T11:06:39.135Z,28.75
2019-05-23T11:07:38.116Z,29.02
2019-05-23T11:08:37.857Z,29.05
2019-05-23T11:09:43.069Z,28.97
2019-05-23T11:10:38.054Z,28.88
2019-05-23T11:11:38.161Z,28.86
2019-05-23T11:12:38.048Z,28.7
2019-05-23T11:13:38.096Z,28.42
2019-05-23T11:14:38.249Z,28.35
2019-05-23T11:15:38.290Z,28.39
2019-05-23T11:16:38.237Z,28.52
2019-05-23T11:17:38.366Z,28.37
2019-05-23T11:18:38.511Z,27.9
2019-05-23T11:19:38.388Z,27.51
2019-05-23T11:20:41.038Z,26.95
2019-05-23T11:21:38.707Z,26.71
2019-05-23T11:22:38.793Z,26.73
2019-05-23T11:23:38.085Z,26.89
2019-05-23T11:24:38.074Z,27.1
2019-05-23T11:25:38.107Z,27.15
2019-05-23T11:26:38.008Z,27.22
2019-05-23T11:27:38.043Z,27.39
2019-05-23T11:28:38.077Z,27.64
2019-05-23T11:29:37.990Z,27.85
2019-05-23T11:30:38.043Z,28.23
2019-05-23T11:31:37.983Z,28.45
2019-05-23T11:32:37.976Z,28.51
2019-05-23T11:33:37.954Z,28.66
2019-05-23T11:34:37.957Z,28.63
2019-05-23T11:35:37.965Z,28.52
2019-05-23T11:36:40.939Z,28.15
2019-05-23T11:37:37.943Z,27.85
2019-05-23T11:38:37.936Z,27.78
2019-05-23T11:39:49.431Z,27.74
2019-05-23T11:40:38.693Z,27.68
2019-05-23T11:41:37.944Z,27.52
2019-05-23T11:42:37.925Z,27.63
2019-05-23T11:43:37.920Z,27.68
2019-05-23T11:44:37.909Z,27.89
2019-05-23T11:45:45.360Z,28.07
2019-05-23T11:46:38.062Z,28.22
2019-05-23T11:47:37.955Z,28.3
2019-05-23T11:48:37.914Z,28.44
2019-05-23T11:49:37.902Z,28.59
2019-05-23T11:50:37.893Z,28.6
2019-05-23T11:51:38.059Z,28.56
2019-05-23T11:52:37.666Z,28.56
2019-05-23T11:53:37.907Z,28.47
2019-05-23T11:54:38.202Z,28.44
2019-05-23T11:55:37.966Z,28.17
2019-05-23T11:56:37.656Z,28.12
2019-05-23T11:57:42.362Z,27.98
2019-05-23T11:58:37.971Z,28.02
2019-05-23T11:59:37.885Z,28.14
2019-05-23T12:00:37.938Z,28.27
2019-05-23T12:01:37.869Z,28.45
2019-05-23T12:02:37.872Z,28.51
2019-05-23T12:03:37.866Z,28.54
2019-05-23T12:04:37.866Z,28.44
2019-05-23T12:05:37.901Z,28.41
2019-05-23T12:06:57.060Z,28.2
2019-05-23T12:07:37.857Z,27.87
2019-05-23T12:08:37.886Z,27.64
2019-05-23T12:09:37.913Z,27.47
2019-05-23T12:10:37.842Z,27.21
2019-05-23T12:11:45.136Z,27.17
2019-05-23T12:12:37.837Z,27.07
2019-05-23T12:13:37.838Z,27.12
2019-05-23T12:14:37.828Z,27.14
2019-05-23T12:15:37.833Z,27.2
2019-05-23T12:16:39.020Z,27.45
2019-05-23T12:17:37.818Z,27.58
2019-05-23T12:18:37.809Z,27.51
2019-05-23T12:19:38.375Z,27.65
2019-05-23T12:20:37.818Z,27.82
2019-05-23T12:21:37.814Z,27.65
2019-05-23T12:22:37.992Z,27.42
2019-05-23T12:23:37.802Z,27.15
2019-05-23T12:24:40.314Z,27.14
2019-05-23T12:25:37.791Z,26.93
2019-05-23T12:26:37.824Z,26.73
2019-05-23T12:27:37.788Z,26.78
2019-05-23T12:28:37.794Z,26.62
2019-05-23T12:29:37.796Z,26.6
2019-05-23T12:30:37.779Z,26.43
2019-05-23T12:31:37.843Z,26.41
2019-05-23T12:32:37.789Z,26.4
2019-05-23T12:33:37.798Z,26.31
2019-05-23T12:34:37.799Z,26.31
2019-05-23T12:35:37.775Z,26.28
2019-05-23T12:36:37.779Z,26.38
2019-05-23T12:37:37.801Z,26.28
2019-05-23T12:38:37.765Z,26.23
2019-05-23T12:39:37.757Z,26.41
2019-05-23T12:40:38.099Z,26.48
2019-05-23T12:41:37.747Z,26.51
2019-05-23T12:42:37.746Z,26.48
2019-05-23T12:43:37.756Z,26.22
2019-05-23T12:44:37.749Z,26.15
2019-05-23T12:45:37.733Z,25.87
2019-05-23T12:46:38.004Z,25.66
2019-05-23T12:47:37.725Z,25.33
2019-05-23T12:48:37.728Z,25.23
2019-05-23T12:49:37.790Z,25.18
2019-05-23T12:50:37.678Z,25.36
2019-05-23T12:51:37.781Z,25.32
2019-05-23T12:52:37.714Z,25.48
2019-05-23T12:53:37.462Z,25.44
2019-05-23T12:54:38.113Z,25.69
2019-05-23T12:55:37.687Z,25.66
2019-05-23T12:56:37.700Z,25.8
2019-05-23T12:57:37.694Z,25.93
2019-05-23T12:58:37.680Z,25.99